createdAt,value
2023-01-28T00:01:57.464Z,102505.50
2023-01-28T00:07:00.335Z,102542.41
2023-01-28T00:12:03.248Z,102545.34
2023-01-28T00:17:06.541Z,102552.59
2023-01-28T00:22:10.012Z,102525.44
2023-01-28T00:27:13.023Z,102501.81
2023-01-28T00:32:16.168Z,102470.22
2023-01-28T00:37:20.244Z,102481.47
2023-01-28T00:42:23.149Z,102430.34
2023-01-28T00:47:27.722Z,102501.69
2023-01-28T00:52:30.297Z,102525.28
2023-01-28T00:57:34.502Z,102525.84
2023-01-28T01:02:38.099Z,102511.06
2023-01-28T01:07:44.353Z,102516.56
2023-01-28T01:12:48.083Z,102496.31
2023-01-28T01:17:51.698Z,102500.75
2023-01-28T01:22:54.805Z,102491.97
2023-01-28T01:27:57.179Z,102474.25
2023-01-28T01:33:00.962Z,102458.25
2023-01-28T01:38:03.498Z,102457.91
2023-01-28T01:43:18.047Z,102467.59
2023-01-28T01:48:25.802Z,102482.97
2023-01-28T01:53:30.487Z,102484.13
2023-01-28T01:58:40.019Z,102480.00
2023-01-28T02:04:12.738Z,102484.56
2023-01-28T02:09:27.436Z,102444.47
2023-01-28T02:14:34.276Z,102484.75
2023-01-28T02:20:05.025Z,102500.34
2023-01-28T02:25:39.320Z,102507.38
2023-01-28T02:30:58.622Z,102496.72
2023-01-28T02:36:26.243Z,102447.56
2023-01-28T02:41:43.109Z,102503.75
2023-01-28T02:47:05.967Z,102487.00
2023-01-28T02:52:14.969Z,102495.16
2023-01-28T02:57:39.718Z,102504.28
2023-01-28T03:03:02.494Z,102484.13
2023-01-28T03:08:27.636Z,102498.25
2023-01-28T03:13:49.407Z,102480.44
2023-01-28T03:19:12.279Z,102500.81
2023-01-28T03:24:43.539Z,102498.53
2023-01-28T03:30:06.983Z,102484.97
2023-01-28T03:35:32.991Z,102505.22
2023-01-28T03:40:35.399Z,102480.66
2023-01-28T03:45:39.946Z,102472.13
2023-01-28T03:50:43.009Z,102527.75
2023-01-28T03:55:47.619Z,102481.47
2023-01-28T04:00:51.184Z,102517.25
2023-01-28T04:06:02.641Z,102525.22
2023-01-28T04:11:26.317Z,102515.78
2023-01-28T04:16:35.597Z,102552.13
2023-01-28T04:21:39.429Z,102527.81
2023-01-28T04:26:42.711Z,102550.63
2023-01-28T04:31:45.792Z,102573.53
2023-01-28T04:37:08.477Z,102542.50
2023-01-28T04:42:31.338Z,102575.03
2023-01-28T04:47:43.533Z,102538.13
2023-01-28T04:53:02.920Z,102522.66
2023-01-28T04:58:22.031Z,102529.13
2023-01-28T05:03:27.560Z,102542.47
2023-01-28T05:08:31.471Z,102557.56
2023-01-28T05:13:34.532Z,102537.41
2023-01-28T05:18:38.182Z,102508.91
2023-01-28T05:23:46.398Z,102556.56
2023-01-28T05:28:48.768Z,102556.94
2023-01-28T05:33:53.346Z,102517.56
2023-01-28T05:38:57.495Z,102536.16
2023-01-28T05:44:01.116Z,102534.47
2023-01-28T05:49:14.254Z,102499.72
2023-01-28T05:54:46.919Z,102512.31
2023-01-28T05:59:49.248Z,102516.03
2023-01-28T06:04:52.256Z,102513.94
2023-01-28T06:09:55.682Z,102484.88
2023-01-28T06:15:00.338Z,102492.56
2023-01-28T06:20:23.527Z,102505.84
2023-01-28T06:25:26.899Z,102496.88
2023-01-28T06:30:29.974Z,102510.75
2023-01-28T06:35:32.918Z,102501.81
2023-01-28T06:40:35.787Z,102497.66
2023-01-28T06:45:40.030Z,102521.06
2023-01-28T06:50:43.527Z,102486.56
2023-01-28T06:55:47.018Z,102494.34
2023-01-28T07:00:49.431Z,102468.31
2023-01-28T07:05:52.272Z,102475.09
2023-01-28T07:10:54.635Z,102477.38
2023-01-28T07:15:57.495Z,102479.81
2023-01-28T07:21:00.413Z,102499.78
2023-01-28T07:26:04.898Z,102484.53
2023-01-28T07:31:07.283Z,102463.47
2023-01-28T07:36:10.288Z,102485.78
2023-01-28T07:41:13.182Z,102425.59
2023-01-28T07:46:17.381Z,102466.66
2023-01-28T07:51:19.794Z,102441.63
2023-01-28T07:56:22.628Z,102459.34
2023-01-28T08:01:25.804Z,102450.91
2023-01-28T08:06:31.718Z,102462.19
2023-01-28T08:11:43.291Z,102455.22
2023-01-28T08:16:45.619Z,102441.78
2023-01-28T08:21:48.954Z,102434.19
2023-01-28T08:26:51.406Z,102431.94
2023-01-28T08:31:54.189Z,102396.75
2023-01-28T08:36:57.213Z,102426.56
2023-01-28T08:42:00.253Z,102426.34
2023-01-28T08:47:02.699Z,102404.66
2023-01-28T08:52:07.093Z,102415.47
2023-01-28T08:57:10.546Z,102398.72
2023-01-28T09:02:30.208Z,102370.19
2023-01-28T09:07:36.000Z,102379.13
2023-01-28T09:12:39.153Z,102397.31
2023-01-28T09:17:42.237Z,102364.97
2023-01-28T09:22:45.111Z,102366.38
2023-01-28T09:27:48.602Z,102368.69
2023-01-28T09:32:52.082Z,102334.47
2023-01-28T09:37:58.170Z,102375.00
2023-01-28T09:43:49.807Z,102375.94
2023-01-28T09:48:53.971Z,102355.47
2023-01-28T09:54:00.509Z,102349.78
2023-01-28T09:59:19.115Z,102290.16
2023-01-28T10:04:39.672Z,102260.53
2023-01-28T10:10:01.171Z,102286.22
2023-01-28T10:15:32.505Z,102278.03
2023-01-28T10:20:41.475Z,102264.25
2023-01-28T10:25:48.427Z,102260.50
2023-01-28T10:30:52.370Z,102251.81
2023-01-28T10:35:56.488Z,102237.09
2023-01-28T10:41:04.385Z,102247.75
2023-01-28T10:46:27.651Z,102220.25
2023-01-28T10:51:34.962Z,102217.94
2023-01-28T10:56:37.916Z,102203.47
2023-01-28T11:01:46.917Z,102222.66
2023-01-28T11:07:07.468Z,102209.34
2023-01-28T11:12:20.559Z,102221.97
2023-01-28T11:17:29.687Z,102196.19
2023-01-28T11:22:46.126Z,102201.22
2023-01-28T11:27:50.318Z,102222.50
2023-01-28T11:33:00.525Z,102211.69
2023-01-28T11:38:03.026Z,102194.31
2023-01-28T11:43:09.404Z,102183.38
2023-01-28T11:48:46.199Z,102206.19
2023-01-28T11:54:00.657Z,102194.28
2023-01-28T11:59:28.416Z,102184.81
2023-01-28T12:05:16.677Z,102188.13
2023-01-28T12:10:38.620Z,102178.75
2023-01-28T12:16:09.540Z,102192.44
2023-01-28T12:21:31.706Z,102199.88
2023-01-28T12:26:49.471Z,102209.03
2023-01-28T12:32:19.045Z,102214.03
2023-01-28T12:37:57.965Z,102219.81
2023-01-28T12:43:22.006Z,102226.44
2023-01-28T12:48:53.688Z,102237.75
2023-01-28T12:54:11.080Z,102252.94
2023-01-28T12:59:23.679Z,102245.88
2023-01-28T13:04:43.243Z,102243.03
2023-01-28T13:09:55.613Z,102231.63
2023-01-28T13:15:00.510Z,102253.94
2023-01-28T13:20:16.515Z,102277.00
2023-01-28T13:25:28.285Z,102271.75
2023-01-28T13:30:47.513Z,102234.72
2023-01-28T13:35:56.145Z,102254.88
2023-01-28T13:41:01.150Z,102264.38
2023-01-28T13:46:08.090Z,102273.88
2023-01-28T13:51:38.675Z,102245.16
2023-01-28T13:56:48.453Z,102270.56
2023-01-28T14:02:25.065Z,102182.22
2023-01-28T14:08:05.713Z,102261.91
2023-01-28T14:13:14.634Z,102237.31
2023-01-28T14:18:35.990Z,102256.88
2023-01-28T14:23:44.388Z,102234.53
2023-01-28T14:29:09.806Z,102269.09
2023-01-28T14:34:18.332Z,102276.19
2023-01-28T14:39:29.135Z,102257.66
2023-01-28T14:44:41.216Z,102231.88
2023-01-28T14:49:44.482Z,102264.47
2023-01-28T14:55:13.726Z,102264.09
2023-01-28T15:00:20.328Z,102275.22
2023-01-28T15:05:26.260Z,102257.16
2023-01-28T15:10:32.633Z,102279.28
2023-01-28T15:15:38.318Z,102280.69
2023-01-28T15:20:45.990Z,102262.88
2023-01-28T15:25:49.581Z,102265.69
2023-01-28T15:30:52.071Z,102286.25
2023-01-28T15:35:56.600Z,102290.84
2023-01-28T15:41:01.961Z,102243.88
2023-01-28T15:46:12.747Z,102282.72
2023-01-28T15:51:26.512Z,102256.41
2023-01-28T15:56:31.378Z,102277.28
2023-01-28T16:01:34.429Z,102242.22
2023-01-28T16:06:41.940Z,102242.38
2023-01-28T16:11:47.185Z,102270.19
2023-01-28T16:16:50.301Z,102258.19
2023-01-28T16:21:52.839Z,102246.75
2023-01-28T16:27:04.191Z,102244.50
2023-01-28T16:32:36.933Z,102252.81
2023-01-28T16:37:40.790Z,102281.59
2023-01-28T16:42:45.522Z,102266.09
2023-01-28T16:47:47.998Z,102239.16
2023-01-28T16:52:53.925Z,102266.47
2023-01-28T16:57:57.852Z,102225.84
2023-01-28T17:03:00.559Z,102272.41
2023-01-28T17:08:03.129Z,102258.72
2023-01-28T17:13:05.975Z,102235.47
2023-01-28T17:18:11.784Z,102273.66
2023-01-28T17:23:17.718Z,102210.78
2023-01-28T17:28:20.430Z,102251.13
2023-01-28T17:33:22.834Z,102265.03
2023-01-28T17:38:25.241Z,102251.59
2023-01-28T17:43:27.830Z,102226.91
2023-01-28T17:48:30.381Z,102245.56
2023-01-28T17:53:40.714Z,102259.81
2023-01-28T17:58:43.425Z,102243.38
2023-01-28T18:03:45.948Z,102202.56
2023-01-28T18:08:49.002Z,102245.28
2023-01-28T18:13:52.054Z,102232.16
2023-01-28T18:18:54.524Z,102211.47
2023-01-28T18:23:57.009Z,102193.59
2023-01-28T18:28:59.773Z,102217.50
2023-01-28T18:34:03.824Z,102219.88
2023-01-28T18:39:06.449Z,102230.31
2023-01-28T18:44:10.041Z,102142.13
2023-01-28T18:49:13.139Z,102218.84
2023-01-28T18:54:16.238Z,102216.59
2023-01-28T18:59:18.959Z,102172.25
2023-01-28T19:04:21.534Z,102202.00
2023-01-28T19:09:24.200Z,102179.16
2023-01-28T19:14:26.777Z,102182.66
2023-01-28T19:19:29.203Z,102218.69
2023-01-28T19:24:31.751Z,102217.75
2023-01-28T19:29:34.153Z,102208.19
2023-01-28T19:34:37.859Z,102215.53
2023-01-28T19:39:40.401Z,102218.41
2023-01-28T19:44:42.750Z,102197.41
2023-01-28T19:49:45.129Z,102204.25
2023-01-28T19:54:47.981Z,102236.78
2023-01-28T19:59:50.281Z,102195.09
2023-01-28T20:05:00.664Z,102220.50
2023-01-28T20:10:05.925Z,102215.94
2023-01-28T20:15:10.182Z,102220.34
2023-01-28T20:20:13.212Z,102207.34
2023-01-28T20:25:17.217Z,102236.22
2023-01-28T20:30:19.977Z,102207.69
2023-01-28T20:35:23.506Z,102235.28
2023-01-28T20:40:26.411Z,102184.38
2023-01-28T20:45:32.525Z,102217.97
2023-01-28T20:50:36.092Z,102193.31
2023-01-28T20:55:39.026Z,102216.16
2023-01-28T21:00:47.459Z,102201.88
2023-01-28T21:05:50.251Z,102213.59
2023-01-28T21:10:52.709Z,102218.44
2023-01-28T21:15:56.741Z,102223.03
2023-01-28T21:21:08.324Z,102181.47
2023-01-28T21:26:11.753Z,102211.50
2023-01-28T21:31:15.851Z,102182.63
2023-01-28T21:36:19.946Z,102195.84
2023-01-28T21:41:22.919Z,102191.72
2023-01-28T21:46:31.088Z,102167.88
2023-01-28T21:51:38.154Z,102168.97
2023-01-28T21:56:45.575Z,102193.66
2023-01-28T22:01:48.977Z,102177.22
2023-01-28T22:06:54.592Z,102181.94
2023-01-28T22:11:57.497Z,102173.03
2023-01-28T22:17:00.973Z,102203.69
2023-01-28T22:22:04.639Z,102158.13
2023-01-28T22:27:07.103Z,102181.59
2023-01-28T22:32:09.530Z,102189.72
2023-01-28T22:37:11.983Z,102159.16
2023-01-28T22:42:14.423Z,102168.22
2023-01-28T22:47:17.434Z,102188.72
2023-01-28T22:52:19.793Z,102164.78
2023-01-28T22:57:23.216Z,102185.59
2023-01-28T23:02:26.504Z,102157.72
2023-01-28T23:07:29.436Z,102190.59
2023-01-28T23:12:32.408Z,102183.19
2023-01-28T23:17:53.909Z,102150.88
2023-01-28T23:23:15.403Z,102176.84
2023-01-28T23:28:17.719Z,102162.44
2023-01-28T23:33:20.617Z,102136.94
2023-01-28T23:38:23.675Z,102137.53
2023-01-28T23:43:27.686Z,102147.28
2023-01-28T23:48:31.121Z,102171.25
2023-01-28T23:53:34.745Z,102136.22
2023-01-28T23:58:43.636Z,102176.56
